Time;durP1;ratioP1;P1;durP2;ratioP2;P2;SDS_P1;SDS_P2;PMS_P1;PMS_P2;Temp;Humidity;BMP_temperature;BMP_pressure;BME280_temperature;BME280_humidity;BME280_pressure;Samples;Min_cycle;Max_cycle;Signal;HPM_P1;HPM_P2
2021/05/14 00:01:44;;;;;;;1.50;1.40;;;;;;;9.79;88.13;95574.31;5060725;28;20426;-68
2021/05/14 00:04:09;;;;;;;2.37;1.50;;;;;;;10.07;86.60;95572.34;5058926;28;20510;-67
2021/05/14 00:06:35;;;;;;;1.40;1.23;;;;;;;10.17;86.35;95579.59;5073652;28;20510;-68
2021/05/14 00:09:00;;;;;;;1.83;1.47;;;;;;;10.01;86.80;95570.72;5072939;28;20712;-59
2021/05/14 00:11:25;;;;;;;2.40;1.53;;;;;;;9.80;87.69;95579.31;5075694;28;20205;-60
2021/05/14 00:13:53;;;;;;;1.23;1.13;;;;;;;9.92;87.69;95581.84;5093725;28;20571;-58
2021/05/14 00:16:20;;;;;;;2.03;1.50;;;;;;;10.14;86.63;95572.22;5093726;28;20172;-58
2021/05/14 00:18:46;;;;;;;1.60;1.50;;;;;;;10.15;85.72;95571.19;5084688;28;20431;-57
2021/05/14 00:21:11;;;;;;;1.57;1.33;;;;;;;10.01;86.66;95573.34;5053378;28;20409;-67
2021/05/14 00:23:36;;;;;;;1.73;1.30;;;;;;;9.98;86.83;95575.66;5061737;28;20922;-68
2021/05/14 00:26:02;;;;;;;1.90;1.73;;;;;;;10.05;86.54;95579.69;5071545;28;20190;-68
2021/05/14 00:28:27;;;;;;;1.50;1.40;;;;;;;10.22;85.80;95574.41;5072845;28;20170;-59
2021/05/14 00:30:53;;;;;;;2.10;1.63;;;;;;;10.16;85.48;95576.19;5070408;28;20196;-67
2021/05/14 00:33:18;;;;;;;1.53;1.43;;;;;;;10.20;85.44;95573.84;5071414;28;20190;-67
2021/05/14 00:35:43;;;;;;;1.30;1.30;;;;;;;9.99;86.66;95575.41;5058187;28;20182;-67
2021/05/14 00:38:09;;;;;;;1.50;1.13;;;;;;;10.02;86.67;95574.91;5062309;28;20295;-60
2021/05/14 00:40:34;;;;;;;1.67;1.43;;;;;;;10.33;85.05;95576.94;5069473;28;20197;-59
2021/05/14 00:42:59;;;;;;;1.67;1.50;;;;;;;10.25;85.17;95569.47;5053499;28;20178;-68
2021/05/14 00:45:25;;;;;;;3.00;1.10;;;;;;;10.29;84.32;95567.19;5064650;28;20185;-67
2021/05/14 00:47:50;;;;;;;1.43;1.33;;;;;;;10.02;85.45;95568.84;5066149;28;20180;-67
2021/05/14 00:50:16;;;;;;;1.50;1.40;;;;;;;9.90;85.49;95578.66;5063336;28;20208;-58
2021/05/14 00:52:42;;;;;;;1.70;1.60;;;;;;;10.15;84.95;95569.34;5058234;28;20169;-59
2021/05/14 00:55:08;;;;;;;2.87;1.60;;;;;;;10.20;84.70;95571.25;5076066;28;20967;-59
2021/05/14 00:57:34;;;;;;;1.80;1.50;;;;;;;10.30;83.94;95571.38;5076111;28;20185;-59
2021/05/14 00:59:59;;;;;;;1.63;1.53;;;;;;;9.96;84.92;95575.91;5074695;28;20448;-58
2021/05/14 01:02:25;;;;;;;1.10;1.00;;;;;;;9.93;85.40;95572.94;5057405;28;20420;-58
2021/05/14 01:04:50;;;;;;;1.40;1.30;;;;;;;9.45;88.00;95568.28;5058736;28;20255;-67
2021/05/14 01:07:15;;;;;;;3.10;1.90;;;;;;;9.41;88.12;95577.66;5056060;28;20618;-67
2021/05/14 01:09:42;;;;;;;2.20;1.37;;;;;;;9.42;88.57;95571.34;5056494;28;20197;-59
2021/05/14 01:12:09;;;;;;;1.70;1.60;;;;;;;9.37;89.05;95562.63;5056587;28;20263;-59
2021/05/14 01:14:35;;;;;;;1.40;1.30;;;;;;;9.75;87.16;95565.31;5056363;28;20483;-67
2021/05/14 01:17:01;;;;;;;3.83;2.17;;;;;;;9.52;87.72;95555.81;5066129;28;20476;-59
2021/05/14 01:19:26;;;;;;;1.73;1.60;;;;;;;9.71;87.18;95551.13;5059966;28;20192;-60
2021/05/14 01:21:52;;;;;;;1.40;1.30;;;;;;;9.89;86.54;95551.63;5076454;28;20262;-68
2021/05/14 01:24:17;;;;;;;1.23;1.20;;;;;;;9.84;85.81;95551.56;5076285;28;20172;-67
2021/05/14 01:26:43;;;;;;;1.53;1.20;;;;;;;10.06;85.07;95543.72;5060319;28;20195;-58
2021/05/14 01:29:11;;;;;;;1.53;1.10;;;;;;;10.04;84.72;95545.78;5055937;28;20201;-67
2021/05/14 01:31:36;;;;;;;1.67;0.93;;;;;;;10.06;85.13;95554.22;5056329;28;20177;-59
2021/05/14 01:34:04;;;;;;;1.07;1.00;;;;;;;9.92;86.15;95552.97;5073546;28;20842;-58
2021/05/14 01:36:30;;;;;;;3.50;1.20;;;;;;;9.99;85.87;95548.34;5074964;28;20184;-67
2021/05/14 01:38:55;;;;;;;1.20;1.10;;;;;;;9.93;85.46;95541.44;5075639;28;20438;-67
2021/05/14 01:41:20;;;;;;;1.20;1.13;;;;;;;10.09;85.25;95543.28;5076042;28;20223;-59
2021/05/14 01:43:46;;;;;;;1.33;1.00;;;;;;;9.93;85.76;95546.69;5067990;28;20265;-59
2021/05/14 01:46:11;;;;;;;0.93;0.93;;;;;;;9.99;85.16;95546.53;5062273;28;20173;-68
2021/05/14 01:48:36;;;;;;;3.37;1.70;;;;;;;9.96;86.02;95547.03;5066141;28;20536;-58
2021/05/14 01:51:09;;;;;;;2.20;0.93;;;;;;;9.96;85.39;95549.66;5069917;28;20200;-68
2021/05/14 01:53:34;;;;;;;1.10;1.10;;;;;;;10.00;85.52;95540.25;5076206;28;20169;-68
2021/05/14 01:56:00;;;;;;;3.10;1.17;;;;;;;10.02;84.91;95543.41;5068059;28;20428;-59
2021/05/14 01:58:25;;;;;;;1.30;1.20;;;;;;;9.60;86.70;95544.13;5074111;28;20168;-59
2021/05/14 02:00:50;;;;;;;4.13;1.37;;;;;;;10.02;85.44;95542.63;5072895;28;20682;-59
2021/05/14 02:03:16;;;;;;;1.50;1.40;;;;;;;9.68;86.48;95549.75;5066196;28;20180;-58
2021/05/14 02:05:41;;;;;;;1.70;1.40;;;;;;;9.62;86.53;95547.31;5074956;28;20184;-67
2021/05/14 02:08:06;;;;;;;1.60;1.50;;;;;;;9.61;86.75;95550.94;5073485;28;20188;-59
2021/05/14 02:10:32;;;;;;;2.27;1.60;;;;;;;9.46;87.77;95535.78;5075532;28;20227;-67
2021/05/14 02:12:57;;;;;;;1.57;1.47;;;;;;;9.34;88.42;95533.25;5075244;28;20168;-65
2021/05/14 02:15:22;;;;;;;2.23;1.20;;;;;;;8.92;90.63;95546.91;5075463;28;20196;-67
2021/05/14 02:17:48;;;;;;;2.83;1.50;;;;;;;8.90;90.46;95541.13;5064993;28;20167;-58
2021/05/14 02:20:13;;;;;;;1.80;1.70;;;;;;;9.00;90.20;95543.94;5063466;28;20210;-67
2021/05/14 02:22:39;;;;;;;2.50;1.37;;;;;;;9.07;90.05;95544.56;5075199;28;20171;-67
2021/05/14 02:25:06;;;;;;;3.03;1.47;;;;;;;8.81;91.73;95548.56;5074553;28;20179;-58
2021/05/14 02:27:33;;;;;;;1.37;1.30;;;;;;;8.80;91.37;95539.13;5074460;28;20183;-68
2021/05/14 02:29:59;;;;;;;2.10;1.40;;;;;;;8.77;92.19;95544.03;5074783;28;20427;-59
2021/05/14 02:32:25;;;;;;;1.40;1.30;;;;;;;8.76;91.63;95548.47;5072759;28;20507;-67
2021/05/14 02:34:50;;;;;;;1.70;1.60;;;;;;;8.79;91.51;95547.19;5074578;28;20595;-68
2021/05/14 02:37:15;;;;;;;3.80;2.00;;;;;;;8.94;91.21;95543.03;5074618;28;20518;-67
2021/05/14 02:39:41;;;;;;;1.40;1.20;;;;;;;8.98;90.94;95541.53;5060509;28;20332;-58
2021/05/14 02:42:08;;;;;;;1.77;1.67;;;;;;;9.13;90.53;95548.88;5054948;28;20178;-68
2021/05/14 02:44:33;;;;;;;1.90;1.67;;;;;;;8.80;92.14;95543.56;5053534;28;20186;-58
2021/05/14 02:46:59;;;;;;;4.53;2.80;;;;;;;9.05;90.26;95541.38;5071860;28;20421;-64
2021/05/14 02:49:25;;;;;;;1.37;1.27;;;;;;;8.97;90.95;95539.13;5064983;28;20244;-67
2021/05/14 02:51:50;;;;;;;1.63;1.53;;;;;;;9.04;90.21;95540.59;5057196;28;20200;-58
2021/05/14 02:54:15;;;;;;;1.40;1.30;;;;;;;9.19;89.66;95547.91;5054480;28;20197;-67
2021/05/14 02:56:41;;;;;;;1.83;1.50;;;;;;;9.50;87.81;95534.25;5054695;28;20218;-59
2021/05/14 02:59:06;;;;;;;1.60;1.50;;;;;;;9.38;88.36;95540.63;5054193;28;20737;-67
2021/05/14 03:01:31;;;;;;;1.00;1.00;;;;;;;9.08;89.57;95536.47;5055761;28;20185;-59
2021/05/14 03:03:57;;;;;;;1.20;1.10;;;;;;;9.04;89.78;95537.19;5055364;28;20649;-67
2021/05/14 03:06:22;;;;;;;1.70;1.60;;;;;;;9.11;89.78;95537.84;5063172;28;20233;-67
2021/05/14 03:08:48;;;;;;;1.83;1.67;;;;;;;9.29;89.00;95541.00;5073953;28;20192;-59
2021/05/14 03:11:14;;;;;;;3.07;1.50;;;;;;;9.14;89.36;95534.72;5074320;28;20566;-58
2021/05/14 03:13:39;;;;;;;1.97;1.70;;;;;;;9.47;87.96;95541.81;5067099;28;20734;-67
2021/05/14 03:16:05;;;;;;;2.30;1.87;;;;;;;9.21;88.86;95545.84;5054158;28;20231;-67
2021/05/14 03:18:30;;;;;;;2.40;1.70;;;;;;;9.23;88.65;95543.78;5054201;28;20184;-67
2021/05/14 03:20:56;;;;;;;1.50;1.40;;;;;;;9.33;88.47;95542.13;5064482;28;20205;-66
2021/05/14 03:23:22;;;;;;;1.93;1.40;;;;;;;9.50;88.57;95544.75;5053946;28;20169;-68
2021/05/14 03:25:48;;;;;;;1.90;1.80;;;;;;;9.78;86.52;95542.06;5053908;28;20538;-67
2021/05/14 03:28:13;;;;;;;1.50;1.40;;;;;;;9.82;85.82;95542.38;5053725;28;20426;-67
2021/05/14 03:30:39;;;;;;;1.87;1.27;;;;;;;9.85;85.38;95532.19;5052792;28;20479;-67
2021/05/14 03:33:05;;;;;;;2.87;2.10;;;;;;;9.89;85.75;95535.13;5054631;28;20174;-67
2021/05/14 03:35:30;;;;;;;1.50;1.40;;;;;;;10.19;83.97;95536.34;5072414;28;20200;-59
2021/05/14 03:37:55;;;;;;;2.27;2.07;;;;;;;10.40;83.05;95539.22;5071997;28;20659;-59
2021/05/14 03:40:32;;;;;;;1.57;1.30;;;;;;;10.33;82.82;95534.94;5073812;28;20193;-58
2021/05/14 03:42:59;;;;;;;1.43;1.30;;;;;;;10.42;82.57;95539.78;5073529;28;20172;-61
2021/05/14 03:45:24;;;;;;;1.83;1.37;;;;;;;10.45;81.81;95536.66;5072635;28;20500;-67
2021/05/14 03:47:52;;;;;;;1.60;1.50;;;;;;;10.28;82.45;95534.88;5070872;28;20466;-59
2021/05/14 03:50:18;;;;;;;2.83;1.63;;;;;;;10.27;82.28;95535.91;5064280;28;20241;-67
2021/05/14 03:52:43;;;;;;;2.57;2.33;;;;;;;10.26;82.52;95536.94;5054930;28;20505;-68
2021/05/14 03:55:09;;;;;;;1.67;1.57;;;;;;;10.40;82.05;95539.22;5067024;28;20202;-58
2021/05/14 03:57:35;;;;;;;2.23;1.57;;;;;;;10.38;82.03;95538.66;5073361;28;20216;-59
2021/05/14 04:00:00;;;;;;;1.70;1.40;;;;;;;10.05;82.85;95536.91;5073484;28;20235;-68
2021/05/14 04:02:26;;;;;;;1.70;1.53;;;;;;;10.35;82.54;95532.06;5073654;28;20231;-68
2021/05/14 04:04:52;;;;;;;1.70;1.60;;;;;;;10.27;81.76;95535.13;5070802;28;20199;-59
2021/05/14 04:07:19;;;;;;;2.13;1.80;;;;;;;10.45;81.41;95541.91;5055970;28;20633;-59
2021/05/14 04:09:52;;;;;;;1.97;1.50;;;;;;;9.93;83.10;95539.63;5056461;28;20812;-68
2021/05/14 04:15:01;;;;;;;2.67;1.50;;;;;;;9.83;83.94;95541.31;5073524;28;20471;-58
2021/05/14 04:17:27;;;;;;;2.00;1.67;;;;;;;9.56;85.87;95529.91;5071403;28;20427;-68
2021/05/14 04:19:52;;;;;;;2.40;1.23;;;;;;;9.42;86.80;95537.28;5073314;28;20200;-59
2021/05/14 04:22:18;;;;;;;5.43;1.77;;;;;;;9.34;87.55;95537.69;5075917;28;20187;-60
2021/05/14 04:24:44;;;;;;;1.23;1.13;;;;;;;9.11;88.28;95535.22;5060003;28;20537;-68
2021/05/14 04:27:10;;;;;;;1.70;1.60;;;;;;;9.12;89.05;95539.41;5059582;28;20409;-68
2021/05/14 04:29:37;;;;;;;2.77;1.77;;;;;;;9.12;88.77;95539.41;5060003;28;20280;-68
2021/05/14 04:32:02;;;;;;;1.53;1.43;;;;;;;9.45;88.46;95539.44;5060005;28;20407;-58
2021/05/14 04:34:28;;;;;;;2.20;1.87;;;;;;;9.65;86.92;95534.50;5075245;28;20830;-68
2021/05/14 04:36:53;;;;;;;2.93;1.40;;;;;;;9.79;86.16;95537.56;5059763;28;20222;-59
2021/05/14 04:39:19;;;;;;;1.73;1.63;;;;;;;9.54;87.59;95535.38;5078371;28;20447;-58
2021/05/14 04:41:44;;;;;;;1.40;1.30;;;;;;;9.68;87.15;95539.25;5078110;28;20179;-59
2021/05/14 04:44:10;;;;;;;1.70;1.60;;;;;;;9.68;87.24;95536.63;5079730;28;20169;-68
2021/05/14 04:46:35;;;;;;;2.50;1.70;;;;;;;9.75;87.05;95542.50;5079728;28;20168;-59
2021/05/14 04:49:00;;;;;;;2.30;1.60;;;;;;;9.78;87.27;95539.44;5079290;28;20199;-68
2021/05/14 04:51:27;;;;;;;1.57;1.10;;;;;;;9.43;88.24;95538.88;5079694;28;20185;-68
2021/05/14 04:53:53;;;;;;;2.00;1.80;;;;;;;9.45;88.69;95536.81;5077555;28;20250;-68
2021/05/14 04:56:19;;;;;;;1.37;1.30;;;;;;;9.70;87.84;95537.19;5060837;28;20423;-66
2021/05/14 04:58:44;;;;;;;1.73;1.60;;;;;;;9.27;89.78;95539.66;5059092;28;20199;-68
2021/05/14 05:01:13;;;;;;;1.33;1.27;;;;;;;9.53;88.80;95543.50;5059867;28;20533;-68
2021/05/14 05:03:43;;;;;;;1.80;1.40;;;;;;;9.78;88.17;95543.88;5059582;28;20227;-68
2021/05/14 05:06:08;;;;;;;1.67;1.10;;;;;;;9.49;88.85;95551.03;5059817;28;20444;-68
2021/05/14 05:08:33;;;;;;;3.63;2.00;;;;;;;9.72;87.94;95548.25;5064809;28;20457;-58
2021/05/14 05:10:59;;;;;;;2.10;1.10;;;;;;;9.82;87.34;95552.84;5079461;28;20642;-67
2021/05/14 05:13:24;;;;;;;1.97;1.23;;;;;;;9.74;88.54;95548.81;5079310;28;20580;-68
2021/05/14 05:15:49;;;;;;;3.30;1.47;;;;;;;10.09;86.84;95551.16;5067110;28;20637;-59
2021/05/14 05:18:15;;;;;;;1.67;1.33;;;;;;;10.27;85.26;95550.88;5059176;28;20567;-59
2021/05/14 05:20:40;;;;;;;1.73;1.60;;;;;;;10.09;86.06;95549.31;5060449;28;20631;-67
2021/05/14 05:23:06;;;;;;;2.00;1.60;;;;;;;10.22;85.69;95559.47;5059503;28;20624;-67
2021/05/14 05:25:31;;;;;;;1.90;1.60;;;;;;;10.37;85.17;95561.50;5059134;28;20182;-68
2021/05/14 05:27:57;;;;;;;1.30;1.20;;;;;;;10.14;86.19;95557.28;5059221;28;20174;-59
2021/05/14 05:30:24;;;;;;;1.40;1.30;;;;;;;10.30;86.17;95561.69;5059451;28;20209;-58
2021/05/14 05:32:50;;;;;;;3.30;1.50;;;;;;;10.49;84.65;95579.78;5058632;28;20644;-59
2021/05/14 05:35:16;;;;;;;2.73;1.83;;;;;;;10.49;84.83;95567.41;5057655;28;20833;-68
2021/05/14 05:37:41;;;;;;;3.50;1.63;;;;;;;10.26;86.13;95576.34;5074852;28;20510;-59
2021/05/14 05:40:07;;;;;;;3.93;1.17;;;;;;;10.46;84.54;95578.41;5075976;28;20189;-59
2021/05/14 05:42:33;;;;;;;1.27;1.17;;;;;;;10.75;83.64;95585.06;5075993;28;20205;-59
2021/05/14 05:44:58;;;;;;;1.40;1.30;;;;;;;10.70;83.75;95584.22;5075994;28;20175;-68
2021/05/14 05:47:23;;;;;;;1.20;1.10;;;;;;;10.82;82.75;95584.88;5075621;28;20177;-59
2021/05/14 05:49:49;;;;;;;1.63;1.40;;;;;;;11.00;82.47;95584.56;5073911;28;20206;-68
2021/05/14 05:52:14;;;;;;;2.20;1.50;;;;;;;11.03;82.14;95582.22;5076072;28;20185;-58
2021/05/14 05:54:39;;;;;;;1.40;1.30;;;;;;;10.96;83.04;95586.88;5073815;28;20226;-64
2021/05/14 05:57:05;;;;;;;4.73;2.37;;;;;;;11.17;82.58;95574.75;5075855;28;20174;-69
2021/05/14 05:59:31;;;;;;;1.53;1.30;;;;;;;11.13;82.25;95574.44;5076057;28;20187;-68
2021/05/14 06:01:56;;;;;;;1.60;1.40;;;;;;;10.87;83.27;95584.97;5075699;28;20633;-68
2021/05/14 06:04:21;;;;;;;1.97;1.70;;;;;;;11.06;83.78;95583.56;5070927;28;20189;-58
2021/05/14 06:06:47;;;;;;;1.30;1.20;;;;;;;11.39;82.03;95586.00;5075708;28;20163;-68
2021/05/14 06:09:12;;;;;;;1.50;1.40;;;;;;;11.26;82.84;95591.66;5064822;28;20195;-68
2021/05/14 06:11:37;;;;;;;2.33;1.70;;;;;;;11.23;82.92;95592.94;5065300;28;20194;-59
2021/05/14 06:14:03;;;;;;;3.83;1.30;;;;;;;11.55;81.51;95592.19;5069084;28;20202;-58
2021/05/14 06:16:29;;;;;;;2.20;1.70;;;;;;;11.51;81.06;95591.88;5055390;28;20191;-59
2021/05/14 06:19:11;;;;;;;2.30;1.20;;;;;;;11.93;79.73;95597.25;5054952;28;20270;-68
2021/05/14 06:21:43;;;;;;;1.20;1.03;;;;;;;11.99;79.71;95597.03;5056008;28;20645;-68
2021/05/14 06:24:09;;;;;;;1.30;1.20;;;;;;;11.89;80.10;95596.16;5066104;28;20832;-59
2021/05/14 06:26:34;;;;;;;3.20;1.23;;;;;;;11.60;79.48;95594.84;5066110;28;20452;-67
2021/05/14 06:28:59;;;;;;;2.73;0.97;;;;;;;11.83;79.38;95597.97;5055638;28;20282;-59
2021/05/14 06:31:25;;;;;;;1.00;1.00;;;;;;;11.93;78.45;95587.53;5055459;28;20183;-59
2021/05/14 06:33:50;;;;;;;0.90;0.80;;;;;;;12.16;77.52;95587.16;5055146;28;20210;-59
2021/05/14 06:36:15;;;;;;;1.70;1.23;;;;;;;12.46;76.40;95588.38;5054797;28;20176;-59
2021/05/14 06:38:41;;;;;;;1.03;0.93;;;;;;;12.56;76.63;95586.56;5054454;28;20168;-68
2021/05/14 06:41:06;;;;;;;0.80;0.80;;;;;;;12.43;75.98;95581.75;5055392;28;20171;-59
2021/05/14 06:43:32;;;;;;;0.80;0.80;;;;;;;12.47;74.80;95582.84;5070752;28;20189;-59
2021/05/14 06:45:57;;;;;;;1.23;1.00;;;;;;;12.43;74.50;95582.56;5074235;28;20552;-68
2021/05/14 06:48:23;;;;;;;0.53;0.50;;;;;;;12.41;74.62;95578.56;5059949;28;20190;-59
2021/05/14 06:50:48;;;;;;;1.33;0.87;;;;;;;12.58;74.06;95584.47;5054790;28;20245;-58
2021/05/14 06:53:13;;;;;;;1.17;0.70;;;;;;;12.61;72.44;95591.09;5054841;28;20258;-68
2021/05/14 06:55:39;;;;;;;0.67;0.67;;;;;;;12.33;72.33;95592.25;5055603;28;20658;-67
2021/05/14 06:58:04;;;;;;;1.13;1.00;;;;;;;12.48;73.45;95592.34;5054266;28;20652;-59
2021/05/14 07:00:31;;;;;;;1.17;0.70;;;;;;;12.35;72.52;95601.50;5054548;28;20183;-68
2021/05/14 07:02:56;;;;;;;0.80;0.77;;;;;;;12.57;72.92;95603.97;5054572;28;20182;-68
2021/05/14 07:05:22;;;;;;;0.60;0.60;;;;;;;12.54;73.47;95603.69;5054735;28;20422;-59
2021/05/14 07:07:47;;;;;;;0.57;0.50;;;;;;;12.63;72.68;95607.44;5053743;28;20270;-59
2021/05/14 07:10:13;;;;;;;2.30;0.50;;;;;;;12.75;71.75;95602.72;5058086;28;20277;-68
2021/05/14 07:12:39;;;;;;;0.33;0.33;;;;;;;13.00;70.15;95606.25;5073560;28;20166;-58
2021/05/14 07:15:08;;;;;;;0.80;0.50;;;;;;;13.05;71.73;95601.03;5074257;28;20194;-59
2021/05/14 07:17:33;;;;;;;2.10;0.60;;;;;;;13.53;70.43;95601.66;5073963;28;20549;-59
2021/05/14 07:19:59;;;;;;;0.70;0.57;;;;;;;13.78;69.41;95605.09;5074022;28;20516;-59
2021/05/14 07:22:24;;;;;;;0.73;0.50;;;;;;;13.91;67.41;95607.22;5072970;28;20275;-68
2021/05/14 07:24:50;;;;;;;1.03;0.47;;;;;;;14.03;66.40;95596.38;5069018;28;20174;-58
2021/05/14 07:27:16;;;;;;;0.40;0.40;;;;;;;13.74;68.09;95605.88;5061497;28;20228;-59
2021/05/14 07:29:42;;;;;;;0.73;0.60;;;;;;;13.92;68.01;95597.44;5054435;28;20670;-65
2021/05/14 07:32:08;;;;;;;0.50;0.50;;;;;;;13.86;67.46;95601.16;5074029;28;20272;-59
2021/05/14 07:34:34;;;;;;;0.50;0.50;;;;;;;14.00;65.71;95605.63;5069083;28;20475;-64
2021/05/14 07:36:59;;;;;;;0.50;0.50;;;;;;;13.72;64.67;95608.78;5053580;28;20948;-60
2021/05/14 07:39:24;;;;;;;0.60;0.60;;;;;;;13.66;64.71;95604.56;5054765;28;20273;-66
2021/05/14 07:41:50;;;;;;;1.87;0.70;;;;;;;13.47;65.03;95607.97;5064077;28;20183;-65
2021/05/14 07:44:16;;;;;;;0.47;0.47;;;;;;;13.57;65.61;95605.34;5072047;28;20217;-63
2021/05/14 07:46:42;;;;;;;0.60;0.60;;;;;;;13.37;67.05;95606.09;5073757;28;20201;-62
2021/05/14 07:49:07;;;;;;;1.23;0.50;;;;;;;13.48;65.43;95607.69;5073281;28;20457;-61
2021/05/14 07:51:33;;;;;;;1.07;0.40;;;;;;;13.43;64.59;95616.41;5060310;28;20244;-64
2021/05/14 07:53:58;;;;;;;0.87;0.37;;;;;;;13.60;64.19;95612.75;5053484;28;20199;-65
2021/05/14 07:56:23;;;;;;;0.80;0.50;;;;;;;13.56;65.98;95607.19;5052626;28;20175;-63
2021/05/14 07:58:49;;;;;;;0.50;0.50;;;;;;;13.28;64.96;95607.66;5054573;28;20205;-59
2021/05/14 08:01:14;;;;;;;0.50;0.50;;;;;;;13.36;66.10;95607.16;5062264;28;20536;-59
2021/05/14 08:03:40;;;;;;;0.97;0.73;;;;;;;13.55;64.96;95613.56;5062770;28;20182;-59
2021/05/14 08:06:05;;;;;;;2.00;0.43;;;;;;;13.83;63.91;95613.03;5053464;28;20583;-64
2021/05/14 08:08:35;;;;;;;0.80;0.70;;;;;;;13.81;62.39;95609.06;5052938;28;20186;-60
2021/05/14 08:11:00;;;;;;;0.93;0.60;;;;;;;13.93;62.46;95599.03;5051725;28;20198;-61
2021/05/14 08:13:25;;;;;;;0.80;0.70;;;;;;;14.19;63.62;95608.50;5050025;28;20491;-60
2021/05/14 08:15:53;;;;;;;0.60;0.60;;;;;;;14.13;62.68;95604.31;5050811;28;20210;-62
2021/05/14 08:18:19;;;;;;;1.37;0.60;;;;;;;14.43;62.43;95599.78;5050537;28;20188;-61
2021/05/14 08:20:46;;;;;;;0.70;0.70;;;;;;;14.46;64.24;95609.00;5064983;28;20456;-66
2021/05/14 08:23:11;;;;;;;3.90;0.60;;;;;;;14.52;63.54;95600.03;5069269;28;20408;-64
2021/05/14 08:25:37;;;;;;;4.00;1.30;;;;;;;14.90;64.22;95604.66;5069930;28;20420;-66
2021/05/14 08:28:03;;;;;;;0.80;0.50;;;;;;;15.32;64.85;95597.03;5069545;28;20541;-65
2021/05/14 08:30:29;;;;;;;0.70;0.50;;;;;;;15.44;62.02;95602.00;5069916;28;20195;-61
2021/05/14 08:32:54;;;;;;;0.97;0.50;;;;;;;15.21;59.56;95602.66;5054509;28;20426;-61
2021/05/14 08:35:20;;;;;;;3.30;0.60;;;;;;;15.00;60.34;95606.47;5049007;28;20203;-60
2021/05/14 08:37:47;;;;;;;1.90;0.60;;;;;;;15.22;59.04;95602.38;5049262;28;20187;-61
2021/05/14 08:40:13;;;;;;;0.60;0.60;;;;;;;15.26;58.13;95603.41;5049405;28;20199;-61
2021/05/14 08:42:42;;;;;;;1.57;0.80;;;;;;;15.63;56.61;95599.50;5052860;28;20437;-61
2021/05/14 08:45:10;;;;;;;0.53;0.53;;;;;;;15.47;57.66;95592.75;5057516;28;20182;-59
2021/05/14 08:47:36;;;;;;;1.67;0.80;;;;;;;15.48;59.75;95594.31;5059456;28;20418;-61
2021/05/14 08:50:04;;;;;;;2.00;0.43;;;;;;;15.96;59.88;95599.50;5058238;28;20479;-62
2021/05/14 08:52:30;;;;;;;0.87;0.87;;;;;;;16.11;59.21;95596.75;5064717;28;20436;-59
2021/05/14 08:55:00;;;;;;;0.77;0.70;;;;;;;16.36;59.91;95601.00;5049419;28;20457;-61
2021/05/14 08:57:26;;;;;;;0.90;0.60;;;;;;;16.58;59.67;95595.25;5049145;28;20200;-62
2021/05/14 08:59:52;;;;;;;1.80;0.60;;;;;;;16.84;59.21;95600.00;5050008;28;20562;-59
2021/05/14 09:02:19;;;;;;;0.50;0.50;;;;;;;17.11;57.23;95596.75;5049610;28;20851;-65
2021/05/14 09:04:46;;;;;;;0.50;0.50;;;;;;;17.19;55.74;95598.78;5049591;28;20425;-64
2021/05/14 09:07:14;;;;;;;0.70;0.50;;;;;;;17.33;55.50;95597.78;5057808;28;20529;-61
2021/05/14 09:09:39;;;;;;;0.70;0.60;;;;;;;17.47;55.85;95603.19;5072931;28;20481;-66
2021/05/14 09:12:05;;;;;;;0.50;0.50;;;;;;;17.16;54.22;95604.63;5072632;28;20405;-65
2021/05/14 09:14:35;;;;;;;0.70;0.70;;;;;;;17.05;55.57;95603.97;5054176;28;20214;-64
2021/05/14 09:17:11;;;;;;;0.50;0.30;;;;;;;17.14;55.88;95604.91;5057933;28;20432;-66
2021/05/14 09:19:39;;;;;;;0.50;0.50;;;;;;;17.27;56.14;95598.13;5072956;28;20797;-65
2021/05/14 09:22:16;;;;;;;1.47;0.60;;;;;;;17.35;57.22;95602.81;5072356;28;20413;-61
2021/05/14 09:24:48;;;;;;;0.60;0.60;;;;;;;17.11;56.87;95610.00;5072889;28;20504;-65
2021/05/14 09:27:28;;;;;;;1.73;0.80;;;;;;;16.35;58.77;95597.56;5070825;28;20428;-59
2021/05/14 09:29:57;;;;;;;2.80;0.97;;;;;;;16.66;60.96;95598.06;5072560;28;20438;-61
2021/05/14 09:32:27;;;;;;;1.33;0.60;;;;;;;16.15;57.46;95603.06;5061370;28;20495;-59
2021/05/14 09:34:54;;;;;;;0.70;0.60;;;;;;;16.35;58.76;95608.19;5052217;28;20457;-63
2021/05/14 09:37:23;;;;;;;2.33;0.70;;;;;;;16.68;58.34;95605.75;5063760;28;20429;-60
2021/05/14 09:39:49;;;;;;;0.93;0.57;;;;;;;16.99;56.87;95602.47;5070462;28;20449;-60
2021/05/14 09:42:29;;;;;;;0.73;0.40;;;;;;;16.95;58.22;95603.31;5057046;28;20527;-63
2021/05/14 09:45:31;;;;;;;1.07;0.50;;;;;;;17.09;56.88;95602.34;5052477;28;20402;-61
2021/05/14 09:47:58;;;;;;;0.63;0.60;;;;;;;17.36;58.26;95591.09;5065750;28;20443;-62
2021/05/14 09:50:37;;;;;;;0.60;0.60;;;;;;;17.34;59.39;95603.84;5064294;28;20453;-64
2021/05/14 09:53:07;;;;;;;2.30;0.60;;;;;;;17.32;58.29;95596.19;5052714;28;20429;-64
2021/05/14 09:55:35;;;;;;;0.53;0.50;;;;;;;17.18;56.07;95597.97;5053329;28;20476;-61
2021/05/14 09:58:03;;;;;;;0.80;0.80;;;;;;;17.37;56.18;95588.13;5051960;28;21008;-61
2021/05/14 10:00:29;;;;;;;1.57;0.60;;;;;;;17.47;56.01;95587.25;5052031;28;20473;-64
2021/05/14 10:02:57;;;;;;;1.00;0.50;;;;;;;17.51;54.40;95587.47;5052166;28;20489;-62
2021/05/14 10:05:24;;;;;;;1.03;0.60;;;;;;;17.61;57.04;95588.09;5052113;28;20178;-67
2021/05/14 10:07:49;;;;;;;0.50;0.50;;;;;;;17.55;56.75;95583.94;5064268;28;20425;-64
2021/05/14 10:10:15;;;;;;;2.10;0.73;;;;;;;17.58;53.91;95588.69;5069808;28;21056;-65
2021/05/14 10:12:40;;;;;;;0.60;0.60;;;;;;;17.75;52.91;95594.28;5062796;28;20236;-65
2021/05/14 10:15:08;;;;;;;0.40;0.40;;;;;;;17.90;52.15;95599.34;5056142;28;20692;-63
2021/05/14 10:17:35;;;;;;;1.43;0.60;;;;;;;17.92;53.26;95596.38;5067954;28;20178;-69
2021/05/14 10:20:03;;;;;;;0.87;0.80;;;;;;;17.86;52.58;95595.72;5061565;28;20444;-64
2021/05/14 10:22:30;;;;;;;0.60;0.60;;;;;;;17.97;52.82;95604.31;5071251;28;20946;-69
2021/05/14 10:25:00;;;;;;;1.63;0.90;;;;;;;17.90;53.94;95595.91;5069427;28;20436;-69
2021/05/14 10:27:29;;;;;;;1.23;0.70;;;;;;;17.99;55.14;95592.28;5052209;28;20464;-69
2021/05/14 10:29:57;;;;;;;0.83;0.70;;;;;;;18.27;53.83;95596.59;5051677;28;20434;-64
2021/05/14 10:32:44;;;;;;;6.80;0.77;;;;;;;18.28;53.73;95594.75;5051494;28;20426;-64
2021/05/14 10:35:22;;;;;;;0.60;0.60;;;;;;;18.36;53.82;95592.19;5052974;28;20457;-68
2021/05/14 10:37:53;;;;;;;1.63;1.17;;;;;;;18.33;53.30;95595.41;5071238;28;20867;-64
2021/05/14 10:40:32;;;;;;;1.10;1.00;;;;;;;18.28;52.00;95598.19;5071055;28;20448;-69
2021/05/14 10:43:08;;;;;;;1.07;0.80;;;;;;;18.31;52.81;95602.94;5071361;28;20508;-68
2021/05/14 10:45:37;;;;;;;0.70;0.50;;;;;;;18.12;51.60;95602.19;5069731;28;20422;-69
2021/05/14 10:48:04;;;;;;;1.37;0.53;;;;;;;17.70;50.50;95610.28;5070602;28;20500;-63
2021/05/14 10:50:39;;;;;;;2.73;1.23;;;;;;;17.52;52.46;95616.38;5068128;28;20455;-67
2021/05/14 10:53:26;;;;;;;0.60;0.50;;;;;;;17.52;54.61;95613.72;5068544;28;20473;-68
2021/05/14 10:55:53;;;;;;;1.00;0.63;;;;;;;17.52;57.13;95605.75;5050860;28;21299;-68
2021/05/14 10:58:37;;;;;;;1.43;0.40;;;;;;;17.53;58.04;95607.34;5050295;28;20402;-69
2021/05/14 11:01:03;;;;;;;1.03;0.70;;;;;;;17.10;61.37;95603.13;5060887;28;20543;-68
2021/05/14 11:03:33;;;;;;;1.47;0.70;;;;;;;17.27;59.14;95600.78;5067790;28;20497;-67
2021/05/14 11:06:16;;;;;;;0.80;0.60;;;;;;;17.35;60.55;95594.84;5061819;28;20187;-69
2021/05/14 11:08:44;;;;;;;1.70;0.80;;;;;;;17.45;58.63;95595.47;5050555;28;20421;-69
2021/05/14 11:11:14;;;;;;;1.67;0.80;;;;;;;17.66;59.52;95584.59;5050382;28;20417;-69
2021/05/14 11:13:45;;;;;;;0.70;0.50;;;;;;;17.70;60.57;95598.88;5050782;28;20508;-61
2021/05/14 11:16:44;;;;;;;1.17;0.50;;;;;;;17.47;62.68;95600.53;5051021;28;20847;-60
2021/05/14 11:19:18;;;;;;;0.60;0.50;;;;;;;17.44;63.14;95591.25;5060861;28;20473;-61
2021/05/14 11:22:09;;;;;;;0.83;0.50;;;;;;;17.33;64.63;95595.13;5067258;28;20436;-67
2021/05/14 11:24:45;;;;;;;1.03;0.67;;;;;;;17.59;63.04;95584.97;5069319;28;20809;-60
2021/05/14 11:27:29;;;;;;;1.07;0.63;;;;;;;17.44;62.74;95575.31;5070240;28;20818;-65
2021/05/14 11:29:56;;;;;;;1.33;0.63;;;;;;;17.94;61.59;95576.41;5069461;28;20448;-67
2021/05/14 11:32:26;;;;;;;0.60;0.40;;;;;;;18.00;60.26;95583.25;5073708;28;20762;-61
2021/05/14 11:34:57;;;;;;;0.60;0.57;;;;;;;18.52;60.36;95573.31;5070251;28;20461;-67
2021/05/14 11:37:50;;;;;;;0.50;0.50;;;;;;;18.76;56.65;95577.38;5070945;28;20432;-61
2021/05/14 11:40:34;;;;;;;0.40;0.30;;;;;;;19.03;55.23;95584.56;5057639;28;20448;-67